sensor_id;sensor_type;location;lat;lon;timestamp;pressure;altitude;pressure_sealevel;temperature;humidity
1480;BME280;732;51.698;4.886;2023-05-08T00:00:16;102182.72;;;12.00;76.75
1480;BME280;732;51.698;4.886;2023-05-08T00:02:49;102158.09;;;11.87;76.62
1480;BME280;732;51.698;4.886;2023-05-08T00:05:17;102161.50;;;11.97;76.09
1480;BME280;732;51.698;4.886;2023-05-08T00:07:46;102157.16;;;11.96;76.53
1480;BME280;732;51.698;4.886;2023-05-08T00:10:14;102172.84;;;12.09;76.33
1480;BME280;732;51.698;4.886;2023-05-08T00:12:43;102175.00;;;12.06;76.20
1480;BME280;732;51.698;4.886;2023-05-08T00:15:12;102125.72;;;11.71;76.39
1480;BME280;732;51.698;4.886;2023-05-08T00:17:44;102179.03;;;12.01;76.26
1480;BME280;732;51.698;4.886;2023-05-08T00:20:14;102178.88;;;12.03;76.23
1480;BME280;732;51.698;4.886;2023-05-08T00:22:47;102180.03;;;12.00;76.26
1480;BME280;732;51.698;4.886;2023-05-08T00:25:16;102143.03;;;11.76;76.60
1480;BME280;732;51.698;4.886;2023-05-08T00:27:46;102180.50;;;11.96;76.53
1480;BME280;732;51.698;4.886;2023-05-08T00:30:14;102178.97;;;11.93;76.03
1480;BME280;732;51.698;4.886;2023-05-08T00:32:44;102184.69;;;11.90;76.25
1480;BME280;732;51.698;4.886;2023-05-08T00:35:13;102171.63;;;11.77;76.44
1480;BME280;732;51.698;4.886;2023-05-08T00:37:41;102181.63;;;11.85;76.32
1480;BME280;732;51.698;4.886;2023-05-08T00:40:10;102155.56;;;11.67;76.12
1480;BME280;732;51.698;4.886;2023-05-08T00:42:39;102184.53;;;11.74;76.27
1480;BME280;732;51.698;4.886;2023-05-08T00:45:12;102180.41;;;11.61;76.52
1480;BME280;732;51.698;4.886;2023-05-08T00:47:40;102177.50;;;11.55;76.59
1480;BME280;732;51.698;4.886;2023-05-08T00:50:10;102182.81;;;11.46;76.91
1480;BME280;732;51.698;4.886;2023-05-08T00:52:39;102187.69;;;11.43;77.22
1480;BME280;732;51.698;4.886;2023-05-08T00:55:09;102186.28;;;11.39;77.63
1480;BME280;732;51.698;4.886;2023-05-08T00:57:41;102190.13;;;11.36;77.68
1480;BME280;732;51.698;4.886;2023-05-08T01:00:13;102182.75;;;11.38;77.64
1480;BME280;732;51.698;4.886;2023-05-08T01:02:45;102182.94;;;11.36;77.38
1480;BME280;732;51.698;4.886;2023-05-08T01:05:14;102182.06;;;11.36;77.51
1480;BME280;732;51.698;4.886;2023-05-08T01:07:42;102179.38;;;11.36;77.33
1480;BME280;732;51.698;4.886;2023-05-08T01:10:11;102178.53;;;11.35;77.15
1480;BME280;732;51.698;4.886;2023-05-08T01:12:58;102137.13;;;11.02;77.16
1480;BME280;732;51.698;4.886;2023-05-08T01:15:41;102165.97;;;11.18;77.11
1480;BME280;732;51.698;4.886;2023-05-08T01:18:18;102179.94;;;11.22;77.19
1480;BME280;732;51.698;4.886;2023-05-08T01:21:02;102160.91;;;10.97;77.33
1480;BME280;732;51.698;4.886;2023-05-08T01:24:30;102137.69;;;10.78;77.72
1480;BME280;732;51.698;4.886;2023-05-08T01:27:45;102177.56;;;11.00;77.30
1480;BME280;732;51.698;4.886;2023-05-08T01:33:34;102172.69;;;10.86;77.13
1480;BME280;732;51.698;4.886;2023-05-08T01:36:16;102157.38;;;10.78;76.78
1480;BME280;732;51.698;4.886;2023-05-08T01:38:59;102168.94;;;10.79;76.71
1480;BME280;732;51.698;4.886;2023-05-08T01:41:35;102187.44;;;10.82;76.73
1480;BME280;732;51.698;4.886;2023-05-08T01:44:14;102181.72;;;10.67;77.14
1480;BME280;732;51.698;4.886;2023-05-08T01:46:48;102195.72;;;10.70;77.35
1480;BME280;732;51.698;4.886;2023-05-08T01:49:25;102202.72;;;10.71;77.42
1480;BME280;732;51.698;4.886;2023-05-08T01:52:01;102186.53;;;10.63;77.37
1480;BME280;732;51.698;4.886;2023-05-08T01:54:40;102207.13;;;10.72;77.64
1480;BME280;732;51.698;4.886;2023-05-08T01:57:10;102196.16;;;10.66;77.45
1480;BME280;732;51.698;4.886;2023-05-08T01:59:40;102197.25;;;10.63;78.05
1480;BME280;732;51.698;4.886;2023-05-08T02:02:10;102208.66;;;10.75;77.85
1480;BME280;732;51.698;4.886;2023-05-08T02:04:42;102203.53;;;10.82;78.06
1480;BME280;732;51.698;4.886;2023-05-08T02:07:11;102204.22;;;10.84;78.08
1480;BME280;732;51.698;4.886;2023-05-08T02:09:40;102207.44;;;10.87;78.32
1480;BME280;732;51.698;4.886;2023-05-08T02:12:11;102216.31;;;10.98;78.39
1480;BME280;732;51.698;4.886;2023-05-08T02:14:41;102204.94;;;11.04;77.97
1480;BME280;732;51.698;4.886;2023-05-08T02:17:14;102202.94;;;11.06;77.64
1480;BME280;732;51.698;4.886;2023-05-08T02:19:45;102197.03;;;11.02;77.40
1480;BME280;732;51.698;4.886;2023-05-08T02:22:16;102191.28;;;10.97;77.21
1480;BME280;732;51.698;4.886;2023-05-08T02:24:45;102191.34;;;10.87;77.47
1480;BME280;732;51.698;4.886;2023-05-08T02:27:14;102208.53;;;10.95;77.66
1480;BME280;732;51.698;4.886;2023-05-08T02:29:43;102204.00;;;10.77;77.82
1480;BME280;732;51.698;4.886;2023-05-08T02:32:13;102218.13;;;10.79;77.97
1480;BME280;732;51.698;4.886;2023-05-08T02:34:45;102190.63;;;10.57;77.70
1480;BME280;732;51.698;4.886;2023-05-08T02:37:29;102225.31;;;10.79;77.84
1480;BME280;732;51.698;4.886;2023-05-08T02:39:58;102219.25;;;10.77;77.38
1480;BME280;732;51.698;4.886;2023-05-08T02:42:26;102210.41;;;10.66;77.89
1480;BME280;732;51.698;4.886;2023-05-08T02:44:55;102213.53;;;10.62;77.80
1480;BME280;732;51.698;4.886;2023-05-08T02:47:26;102208.88;;;10.54;78.13
1480;BME280;732;51.698;4.886;2023-05-08T02:50:02;102188.16;;;10.46;78.16
1480;BME280;732;51.698;4.886;2023-05-08T02:52:39;102183.56;;;10.56;78.08
1480;BME280;732;51.698;4.886;2023-05-08T02:55:20;102181.44;;;10.60;78.33
1480;BME280;732;51.698;4.886;2023-05-08T02:57:59;102209.75;;;10.82;78.26
1480;BME280;732;51.698;4.886;2023-05-08T03:00:34;102203.94;;;10.87;78.84
1480;BME280;732;51.698;4.886;2023-05-08T03:03:12;102203.00;;;10.96;78.47
1480;BME280;732;51.698;4.886;2023-05-08T03:05:48;102184.69;;;10.92;78.15
1480;BME280;732;51.698;4.886;2023-05-08T03:08:23;102191.13;;;10.99;79.22
1480;BME280;732;51.698;4.886;2023-05-08T03:10:58;102177.25;;;10.85;79.73
1480;BME280;732;51.698;4.886;2023-05-08T03:13:30;102194.28;;;11.12;79.22
1480;BME280;732;51.698;4.886;2023-05-08T03:16:01;102194.03;;;11.24;78.71
1480;BME280;732;51.698;4.886;2023-05-08T03:18:34;102152.31;;;10.93;79.37
1480;BME280;732;51.698;4.886;2023-05-08T03:21:05;102187.47;;;11.18;79.29
1480;BME280;732;51.698;4.886;2023-05-08T03:23:36;102183.47;;;11.22;79.49
1480;BME280;732;51.698;4.886;2023-05-08T03:26:07;102194.97;;;11.32;79.63
1480;BME280;732;51.698;4.886;2023-05-08T03:28:35;102192.81;;;11.36;79.43
1480;BME280;732;51.698;4.886;2023-05-08T03:31:05;102170.78;;;11.32;78.77
1480;BME280;732;51.698;4.886;2023-05-08T03:33:36;102175.84;;;11.35;79.39
1480;BME280;732;51.698;4.886;2023-05-08T03:36:07;102199.03;;;11.36;80.33
1480;BME280;732;51.698;4.886;2023-05-08T03:38:36;102194.19;;;11.40;80.42
1480;BME280;732;51.698;4.886;2023-05-08T03:41:06;102189.13;;;11.37;80.76
1480;BME280;732;51.698;4.886;2023-05-08T03:43:36;102165.66;;;11.21;81.28
1480;BME280;732;51.698;4.886;2023-05-08T03:46:05;102187.97;;;11.40;81.15
1480;BME280;732;51.698;4.886;2023-05-08T03:48:34;102184.41;;;11.57;80.53
1480;BME280;732;51.698;4.886;2023-05-08T03:51:04;102167.91;;;11.52;80.27
1480;BME280;732;51.698;4.886;2023-05-08T03:53:36;102126.34;;;11.38;80.09
1480;BME280;732;51.698;4.886;2023-05-08T03:56:04;102195.69;;;11.79;79.71
1480;BME280;732;51.698;4.886;2023-05-08T03:58:39;102185.97;;;11.86;79.40
1480;BME280;732;51.698;4.886;2023-05-08T04:01:24;102188.03;;;11.92;79.15
1480;BME280;732;51.698;4.886;2023-05-08T04:04:03;102169.03;;;11.85;79.09
1480;BME280;732;51.698;4.886;2023-05-08T04:06:39;102193.53;;;12.09;78.78
1480;BME280;732;51.698;4.886;2023-05-08T04:09:30;102189.19;;;12.16;78.44
1480;BME280;732;51.698;4.886;2023-05-08T04:12:08;102198.00;;;12.26;78.50
1480;BME280;732;51.698;4.886;2023-05-08T04:14:44;102194.66;;;12.32;78.25
1480;BME280;732;51.698;4.886;2023-05-08T04:17:22;102201.56;;;12.35;78.02
1480;BME280;732;51.698;4.886;2023-05-08T04:20:01;102152.16;;;12.10;78.01
1480;BME280;732;51.698;4.886;2023-05-08T04:22:33;102170.03;;;12.19;77.88
1480;BME280;732;51.698;4.886;2023-05-08T04:25:06;102206.66;;;12.46;77.75
1480;BME280;732;51.698;4.886;2023-05-08T04:27:36;102199.25;;;12.48;77.85
1480;BME280;732;51.698;4.886;2023-05-08T04:30:08;102188.13;;;12.43;77.49
1480;BME280;732;51.698;4.886;2023-05-08T04:32:38;102194.16;;;12.29;77.66
1480;BME280;732;51.698;4.886;2023-05-08T04:35:11;102215.16;;;11.99;79.08
1480;BME280;732;51.698;4.886;2023-05-08T04:37:41;102188.88;;;11.66;79.68
1480;BME280;732;51.698;4.886;2023-05-08T04:40:12;102214.31;;;11.98;79.29
1480;BME280;732;51.698;4.886;2023-05-08T04:42:41;102205.06;;;12.01;79.14
1480;BME280;732;51.698;4.886;2023-05-08T04:45:15;102215.16;;;12.25;78.67
1480;BME280;732;51.698;4.886;2023-05-08T04:47:46;102217.22;;;12.40;78.32
1480;BME280;732;51.698;4.886;2023-05-08T04:50:14;102188.41;;;12.24;78.15
1480;BME280;732;51.698;4.886;2023-05-08T04:52:43;102224.19;;;12.50;78.08
1480;BME280;732;51.698;4.886;2023-05-08T04:55:12;102220.97;;;12.47;77.94
1480;BME280;732;51.698;4.886;2023-05-08T04:57:41;102239.38;;;12.60;77.85
1480;BME280;732;51.698;4.886;2023-05-08T05:00:12;102236.16;;;12.64;77.84
1480;BME280;732;51.698;4.886;2023-05-08T05:02:42;102217.84;;;12.60;77.70
1480;BME280;732;51.698;4.886;2023-05-08T05:05:10;102233.88;;;12.78;77.30
1480;BME280;732;51.698;4.886;2023-05-08T05:07:40;102247.53;;;12.85;77.20
1480;BME280;732;51.698;4.886;2023-05-08T05:10:09;102246.22;;;12.89;77.20
1480;BME280;732;51.698;4.886;2023-05-08T05:12:39;102246.75;;;12.92;76.89
1480;BME280;732;51.698;4.886;2023-05-08T05:15:08;102228.47;;;12.78;76.86
1480;BME280;732;51.698;4.886;2023-05-08T05:17:38;102256.19;;;12.96;76.71
1480;BME280;732;51.698;4.886;2023-05-08T05:20:08;102257.53;;;13.01;76.58
1480;BME280;732;51.698;4.886;2023-05-08T05:22:38;102258.41;;;13.01;76.41
1480;BME280;732;51.698;4.886;2023-05-08T05:25:08;102257.72;;;12.99;76.57
1480;BME280;732;51.698;4.886;2023-05-08T05:27:39;102264.44;;;13.03;76.35
1480;BME280;732;51.698;4.886;2023-05-08T05:30:08;102250.47;;;13.00;76.51
1480;BME280;732;51.698;4.886;2023-05-08T05:32:37;102264.44;;;13.03;76.47
1480;BME280;732;51.698;4.886;2023-05-08T05:35:09;102266.13;;;13.04;76.58
1480;BME280;732;51.698;4.886;2023-05-08T05:37:38;102267.66;;;12.98;76.47
1480;BME280;732;51.698;4.886;2023-05-08T05:40:09;102268.00;;;13.04;76.44
1480;BME280;732;51.698;4.886;2023-05-08T05:42:41;102269.31;;;13.00;76.62
1480;BME280;732;51.698;4.886;2023-05-08T05:45:10;102275.03;;;12.96;76.63
1480;BME280;732;51.698;4.886;2023-05-08T05:47:44;102273.22;;;13.05;76.52
1480;BME280;732;51.698;4.886;2023-05-08T05:50:19;102273.56;;;13.10;76.47
1480;BME280;732;51.698;4.886;2023-05-08T05:52:48;102263.78;;;13.09;76.22
1480;BME280;732;51.698;4.886;2023-05-08T05:55:17;102275.59;;;13.17;76.32
1480;BME280;732;51.698;4.886;2023-05-08T05:57:47;102279.50;;;13.22;75.96
1480;BME280;732;51.698;4.886;2023-05-08T06:00:17;102288.75;;;13.28;75.84
1480;BME280;732;51.698;4.886;2023-05-08T06:02:52;102288.78;;;13.36;76.05
1480;BME280;732;51.698;4.886;2023-05-08T06:05:20;102277.00;;;13.37;75.72
1480;BME280;732;51.698;4.886;2023-05-08T06:07:49;102268.41;;;13.34;75.77
1480;BME280;732;51.698;4.886;2023-05-08T06:10:17;102294.03;;;13.46;75.83
1480;BME280;732;51.698;4.886;2023-05-08T06:12:47;102292.84;;;13.40;75.90
1480;BME280;732;51.698;4.886;2023-05-08T06:15:15;102284.53;;;13.25;76.03
1480;BME280;732;51.698;4.886;2023-05-08T06:17:45;102303.09;;;13.28;76.41
1480;BME280;732;51.698;4.886;2023-05-08T06:20:14;102303.41;;;13.17;76.62
1480;BME280;732;51.698;4.886;2023-05-08T06:22:42;102299.06;;;13.33;76.43
1480;BME280;732;51.698;4.886;2023-05-08T06:25:10;102300.25;;;13.46;76.30
1480;BME280;732;51.698;4.886;2023-05-08T06:27:39;102289.81;;;13.52;75.95
1480;BME280;732;51.698;4.886;2023-05-08T06:30:10;102305.16;;;13.68;75.71
1480;BME280;732;51.698;4.886;2023-05-08T06:32:38;102300.09;;;13.56;75.68
1480;BME280;732;51.698;4.886;2023-05-08T06:35:08;102296.56;;;13.56;75.64
1480;BME280;732;51.698;4.886;2023-05-08T06:37:38;102298.56;;;13.45;75.81
1480;BME280;732;51.698;4.886;2023-05-08T06:40:08;102303.81;;;13.47;75.73
1480;BME280;732;51.698;4.886;2023-05-08T06:42:39;102299.59;;;13.53;75.44
1480;BME280;732;51.698;4.886;2023-05-08T06:45:09;102305.31;;;13.58;75.49
1480;BME280;732;51.698;4.886;2023-05-08T06:47:38;102294.19;;;13.53;75.50
1480;BME280;732;51.698;4.886;2023-05-08T06:50:08;102303.13;;;13.78;75.05
1480;BME280;732;51.698;4.886;2023-05-08T06:52:36;102295.75;;;13.88;74.46
1480;BME280;732;51.698;4.886;2023-05-08T06:55:07;102295.75;;;13.97;73.34
1480;BME280;732;51.698;4.886;2023-05-08T06:57:41;102296.25;;;14.08;73.32
1480;BME280;732;51.698;4.886;2023-05-08T07:00:12;102301.81;;;14.15;73.04
1480;BME280;732;51.698;4.886;2023-05-08T07:02:40;102302.28;;;14.35;72.72
1480;BME280;732;51.698;4.886;2023-05-08T07:05:09;102298.56;;;14.45;72.05
1480;BME280;732;51.698;4.886;2023-05-08T07:07:37;102282.22;;;14.30;71.55
1480;BME280;732;51.698;4.886;2023-05-08T07:10:07;102285.59;;;14.23;72.42
1480;BME280;732;51.698;4.886;2023-05-08T07:12:35;102290.16;;;14.23;71.86
1480;BME280;732;51.698;4.886;2023-05-08T07:15:05;102295.03;;;14.36;72.07
1480;BME280;732;51.698;4.886;2023-05-08T07:17:52;102299.06;;;14.32;71.97
1480;BME280;732;51.698;4.886;2023-05-08T07:20:21;102296.41;;;14.23;72.41
1480;BME280;732;51.698;4.886;2023-05-08T07:22:50;102296.84;;;14.52;72.15
1480;BME280;732;51.698;4.886;2023-05-08T07:25:18;102276.44;;;14.41;71.92
1480;BME280;732;51.698;4.886;2023-05-08T07:27:47;102292.53;;;14.74;71.54
1480;BME280;732;51.698;4.886;2023-05-08T07:30:15;102296.63;;;14.62;70.45
1480;BME280;732;51.698;4.886;2023-05-08T07:32:43;102295.59;;;14.71;70.35
1480;BME280;732;51.698;4.886;2023-05-08T07:35:13;102295.28;;;14.66;71.22
1480;BME280;732;51.698;4.886;2023-05-08T07:37:42;102296.00;;;14.99;70.42
1480;BME280;732;51.698;4.886;2023-05-08T07:40:10;102267.50;;;14.80;69.33
1480;BME280;732;51.698;4.886;2023-05-08T07:42:40;102254.09;;;14.64;69.34
1480;BME280;732;51.698;4.886;2023-05-08T07:45:10;102289.91;;;15.05;68.77
1480;BME280;732;51.698;4.886;2023-05-08T07:47:48;102284.41;;;15.45;68.79
1480;BME280;732;51.698;4.886;2023-05-08T07:50:19;102264.19;;;15.56;68.32
1480;BME280;732;51.698;4.886;2023-05-08T07:52:48;102268.81;;;15.94;66.28
1480;BME280;732;51.698;4.886;2023-05-08T07:55:19;102276.53;;;16.20;65.36
1480;BME280;732;51.698;4.886;2023-05-08T07:57:48;102260.81;;;16.30;64.68
1480;BME280;732;51.698;4.886;2023-05-08T08:00:17;102283.94;;;16.71;64.45
1480;BME280;732;51.698;4.886;2023-05-08T08:02:50;102274.56;;;16.89;64.30
1480;BME280;732;51.698;4.886;2023-05-08T08:05:20;102288.19;;;17.17;63.71
1480;BME280;732;51.698;4.886;2023-05-08T08:07:51;102287.53;;;17.52;62.79
1480;BME280;732;51.698;4.886;2023-05-08T08:10:25;102267.09;;;17.34;61.55
1480;BME280;732;51.698;4.886;2023-05-08T08:13:13;102289.94;;;17.61;60.86
1480;BME280;732;51.698;4.886;2023-05-08T08:15:41;102288.69;;;17.86;60.54
1480;BME280;732;51.698;4.886;2023-05-08T08:18:10;102295.03;;;17.71;61.21
1480;BME280;732;51.698;4.886;2023-05-08T08:20:40;102311.63;;;18.05;60.52
1480;BME280;732;51.698;4.886;2023-05-08T08:23:08;102274.31;;;17.92;60.15
1480;BME280;732;51.698;4.886;2023-05-08T08:25:39;102283.22;;;17.57;61.10
1480;BME280;732;51.698;4.886;2023-05-08T08:28:13;102298.78;;;17.70;61.51
1480;BME280;732;51.698;4.886;2023-05-08T08:30:42;102306.03;;;17.85;60.77
1480;BME280;732;51.698;4.886;2023-05-08T08:33:10;102307.34;;;18.24;59.85
1480;BME280;732;51.698;4.886;2023-05-08T08:35:40;102260.47;;;18.08;59.43
1480;BME280;732;51.698;4.886;2023-05-08T08:38:11;102307.56;;;18.22;58.65
1480;BME280;732;51.698;4.886;2023-05-08T08:40:39;102293.41;;;18.34;57.73
1480;BME280;732;51.698;4.886;2023-05-08T08:43:08;102295.81;;;18.43;57.74
1480;BME280;732;51.698;4.886;2023-05-08T08:45:37;102297.94;;;18.20;57.91
1480;BME280;732;51.698;4.886;2023-05-08T08:48:09;102287.75;;;18.57;57.62
1480;BME280;732;51.698;4.886;2023-05-08T08:50:42;102300.47;;;18.28;57.76
1480;BME280;732;51.698;4.886;2023-05-08T08:53:21;102268.78;;;18.07;57.95
1480;BME280;732;51.698;4.886;2023-05-08T08:55:51;102300.59;;;18.13;58.95
1480;BME280;732;51.698;4.886;2023-05-08T08:58:30;102293.78;;;18.24;58.45
1480;BME280;732;51.698;4.886;2023-05-08T09:01:04;102298.28;;;18.38;58.89
1480;BME280;732;51.698;4.886;2023-05-08T09:03:34;102292.88;;;18.17;57.02
1480;BME280;732;51.698;4.886;2023-05-08T09:06:05;102298.09;;;17.61;58.86
1480;BME280;732;51.698;4.886;2023-05-08T09:08:34;102268.53;;;17.52;59.63
1480;BME280;732;51.698;4.886;2023-05-08T09:11:02;102301.03;;;17.88;58.86
1480;BME280;732;51.698;4.886;2023-05-08T09:13:32;102301.28;;;17.93;57.84
1480;BME280;732;51.698;4.886;2023-05-08T09:16:01;102284.72;;;17.60;59.12
1480;BME280;732;51.698;4.886;2023-05-08T09:18:29;102307.44;;;17.80;58.46
1480;BME280;732;51.698;4.886;2023-05-08T09:20:58;102304.84;;;17.94;58.87
1480;BME280;732;51.698;4.886;2023-05-08T09:23:29;102309.44;;;17.93;58.53
1480;BME280;732;51.698;4.886;2023-05-08T09:25:59;102305.56;;;17.81;58.56
1480;BME280;732;51.698;4.886;2023-05-08T09:28:33;102305.69;;;17.73;58.90
1480;BME280;732;51.698;4.886;2023-05-08T09:31:07;102302.50;;;18.19;58.36
1480;BME280;732;51.698;4.886;2023-05-08T09:33:44;102296.03;;;18.20;57.44
1480;BME280;732;51.698;4.886;2023-05-08T09:36:24;102300.69;;;18.55;57.27
1480;BME280;732;51.698;4.886;2023-05-08T09:38:56;102303.34;;;18.90;55.63
1480;BME280;732;51.698;4.886;2023-05-08T09:41:28;102297.75;;;18.98;55.75
1480;BME280;732;51.698;4.886;2023-05-08T09:44:04;102277.00;;;18.90;55.18
1480;BME280;732;51.698;4.886;2023-05-08T09:46:33;102297.75;;;19.05;55.68
1480;BME280;732;51.698;4.886;2023-05-08T09:49:05;102296.59;;;19.27;54.65
1480;BME280;732;51.698;4.886;2023-05-08T09:51:33;102292.59;;;19.30;55.53
1480;BME280;732;51.698;4.886;2023-05-08T09:54:17;102296.22;;;19.57;54.43
1480;BME280;732;51.698;4.886;2023-05-08T09:56:51;102294.75;;;19.48;55.04
1480;BME280;732;51.698;4.886;2023-05-08T09:59:27;102293.47;;;19.31;55.03
1480;BME280;732;51.698;4.886;2023-05-08T10:02:00;102299.44;;;19.06;53.76
1480;BME280;732;51.698;4.886;2023-05-08T10:04:39;102294.25;;;19.18;54.61
1480;BME280;732;51.698;4.886;2023-05-08T10:07:08;102291.91;;;19.08;56.08
1480;BME280;732;51.698;4.886;2023-05-08T10:09:37;102298.56;;;18.92;56.25
1480;BME280;732;51.698;4.886;2023-05-08T10:12:19;102298.13;;;18.88;55.86
1480;BME280;732;51.698;4.886;2023-05-08T10:14:48;102293.06;;;18.85;57.53
1480;BME280;732;51.698;4.886;2023-05-08T10:17:26;102272.09;;;18.66;55.64
1480;BME280;732;51.698;4.886;2023-05-08T10:19:59;102278.09;;;18.54;54.80
1480;BME280;732;51.698;4.886;2023-05-08T10:22:35;102297.25;;;18.88;54.69
1480;BME280;732;51.698;4.886;2023-05-08T10:25:14;102299.94;;;19.23;54.83
1480;BME280;732;51.698;4.886;2023-05-08T10:27:47;102281.72;;;19.23;55.27
1480;BME280;732;51.698;4.886;2023-05-08T10:30:25;102290.50;;;19.19;54.08
1480;BME280;732;51.698;4.886;2023-05-08T10:32:55;102263.72;;;19.16;55.54
1480;BME280;732;51.698;4.886;2023-05-08T10:35:25;102289.94;;;19.57;54.08
1480;BME280;732;51.698;4.886;2023-05-08T10:37:55;102271.72;;;19.64;52.18
1480;BME280;732;51.698;4.886;2023-05-08T10:40:25;102275.72;;;19.82;52.76
1480;BME280;732;51.698;4.886;2023-05-08T10:42:55;102284.50;;;19.90;52.96
1480;BME280;732;51.698;4.886;2023-05-08T10:45:24;102283.47;;;19.78;52.10
1480;BME280;732;51.698;4.886;2023-05-08T10:48:03;102276.53;;;19.75;52.39
1480;BME280;732;51.698;4.886;2023-05-08T10:50:51;102282.19;;;19.87;52.31
1480;BME280;732;51.698;4.886;2023-05-08T10:53:33;102269.84;;;20.12;52.20
1480;BME280;732;51.698;4.886;2023-05-08T10:56:06;102273.97;;;20.34;52.48
1480;BME280;732;51.698;4.886;2023-05-08T10:58:36;102261.88;;;19.83;51.61
1480;BME280;732;51.698;4.886;2023-05-08T11:01:17;102256.84;;;19.94;51.34
1480;BME280;732;51.698;4.886;2023-05-08T11:03:49;102266.59;;;20.55;51.58
1480;BME280;732;51.698;4.886;2023-05-08T11:06:42;102275.41;;;20.50;48.77
1480;BME280;732;51.698;4.886;2023-05-08T11:09:19;102267.03;;;20.38;49.95
1480;BME280;732;51.698;4.886;2023-05-08T11:12:06;102268.00;;;20.71;50.05
1480;BME280;732;51.698;4.886;2023-05-08T11:14:39;102252.19;;;20.21;49.77
1480;BME280;732;51.698;4.886;2023-05-08T11:17:09;102260.63;;;20.06;49.96
1480;BME280;732;51.698;4.886;2023-05-08T11:19:57;102258.53;;;19.95;51.68
1480;BME280;732;51.698;4.886;2023-05-08T11:22:29;102247.63;;;19.95;50.99
1480;BME280;732;51.698;4.886;2023-05-08T11:25:02;102236.34;;;19.78;51.31
1480;BME280;732;51.698;4.886;2023-05-08T11:27:38;102252.69;;;19.98;50.79
1480;BME280;732;51.698;4.886;2023-05-08T11:30:32;102234.84;;;20.15;51.36
1480;BME280;732;51.698;4.886;2023-05-08T11:33:28;102252.44;;;20.06;51.09
1480;BME280;732;51.698;4.886;2023-05-08T11:35:59;102225.38;;;20.18;50.23
1480;BME280;732;51.698;4.886;2023-05-08T11:38:34;102240.63;;;20.39;50.27
1480;BME280;732;51.698;4.886;2023-05-08T11:41:06;102233.81;;;20.03;50.48
1480;BME280;732;51.698;4.886;2023-05-08T11:44:18;102255.56;;;19.42;51.07
1480;BME280;732;51.698;4.886;2023-05-08T11:46:50;102251.28;;;18.93;53.71
1480;BME280;732;51.698;4.886;2023-05-08T11:49:21;102254.56;;;18.75;55.10
1480;BME280;732;51.698;4.886;2023-05-08T11:51:58;102257.69;;;18.72;55.48
1480;BME280;732;51.698;4.886;2023-05-08T11:54:29;102251.69;;;18.90;55.77
1480;BME280;732;51.698;4.886;2023-05-08T11:56:59;102221.28;;;18.66;56.69
1480;BME280;732;51.698;4.886;2023-05-08T11:59:34;102233.06;;;18.87;55.39
1480;BME280;732;51.698;4.886;2023-05-08T12:02:03;102221.06;;;18.68;55.78
1480;BME280;732;51.698;4.886;2023-05-08T12:04:45;102211.31;;;18.93;54.30
1480;BME280;732;51.698;4.886;2023-05-08T12:07:16;102239.13;;;18.89;54.85
1480;BME280;732;51.698;4.886;2023-05-08T12:09:49;102239.69;;;19.39;55.10
1480;BME280;732;51.698;4.886;2023-05-08T12:12:22;102237.38;;;19.70;51.96
1480;BME280;732;51.698;4.886;2023-05-08T12:14:53;102204.69;;;19.70;51.59
1480;BME280;732;51.698;4.886;2023-05-08T12:17:22;102234.00;;;19.88;53.82
1480;BME280;732;51.698;4.886;2023-05-08T12:19:54;102225.03;;;19.61;50.88
1480;BME280;732;51.698;4.886;2023-05-08T12:22:22;102201.13;;;19.96;52.72
1480;BME280;732;51.698;4.886;2023-05-08T12:24:52;102197.44;;;20.36;50.87
1480;BME280;732;51.698;4.886;2023-05-08T12:27:24;102225.44;;;20.70;48.66
1480;BME280;732;51.698;4.886;2023-05-08T12:29:53;102220.56;;;20.79;48.62
1480;BME280;732;51.698;4.886;2023-05-08T12:32:22;102210.53;;;20.73;48.09
1480;BME280;732;51.698;4.886;2023-05-08T12:34:53;102207.94;;;20.32;48.95
1480;BME280;732;51.698;4.886;2023-05-08T12:37:24;102209.63;;;20.20;49.77
1480;BME280;732;51.698;4.886;2023-05-08T12:39:54;102210.56;;;20.00;49.75
1480;BME280;732;51.698;4.886;2023-05-08T12:45:18;102208.63;;;19.87;50.92
1480;BME280;732;51.698;4.886;2023-05-08T12:47:47;102211.72;;;20.25;50.85
1480;BME280;732;51.698;4.886;2023-05-08T12:50:19;102210.72;;;20.12;49.64
1480;BME280;732;51.698;4.886;2023-05-08T12:52:51;102209.44;;;20.15;49.97
1480;BME280;732;51.698;4.886;2023-05-08T12:55:22;102201.50;;;20.13;50.10
1480;BME280;732;51.698;4.886;2023-05-08T12:58:01;102198.06;;;20.38;50.29
1480;BME280;732;51.698;4.886;2023-05-08T13:00:36;102176.41;;;19.98;50.36
1480;BME280;732;51.698;4.886;2023-05-08T13:03:06;102198.41;;;19.56;51.87
1480;BME280;732;51.698;4.886;2023-05-08T13:05:37;102198.63;;;19.21;53.62
1480;BME280;732;51.698;4.886;2023-05-08T13:08:07;102199.19;;;18.89;54.40
1480;BME280;732;51.698;4.886;2023-05-08T13:10:47;102180.47;;;18.59;55.65
1480;BME280;732;51.698;4.886;2023-05-08T13:13:18;102192.06;;;18.33;56.49
1480;BME280;732;51.698;4.886;2023-05-08T13:15:49;102202.84;;;18.20;57.64
1480;BME280;732;51.698;4.886;2023-05-08T13:18:19;102206.97;;;17.80;58.89
1480;BME280;732;51.698;4.886;2023-05-08T13:20:48;102201.66;;;17.94;57.90
1480;BME280;732;51.698;4.886;2023-05-08T13:23:16;102187.47;;;17.98;58.32
1480;BME280;732;51.698;4.886;2023-05-08T13:25:44;102200.19;;;17.63;59.11
1480;BME280;732;51.698;4.886;2023-05-08T13:28:13;102186.50;;;17.78;57.29
1480;BME280;732;51.698;4.886;2023-05-08T13:30:42;102173.34;;;17.75;58.13
1480;BME280;732;51.698;4.886;2023-05-08T13:33:12;102189.09;;;18.28;56.85
1480;BME280;732;51.698;4.886;2023-05-08T13:35:40;102194.66;;;18.48;56.78
1480;BME280;732;51.698;4.886;2023-05-08T13:38:10;102193.88;;;18.68;55.85
1480;BME280;732;51.698;4.886;2023-05-08T13:40:39;102197.53;;;19.08;55.58
1480;BME280;732;51.698;4.886;2023-05-08T13:43:07;102176.19;;;19.05;54.16
1480;BME280;732;51.698;4.886;2023-05-08T13:45:38;102194.47;;;19.32;53.42
1480;BME280;732;51.698;4.886;2023-05-08T13:48:06;102183.53;;;19.72;54.96
1480;BME280;732;51.698;4.886;2023-05-08T13:50:39;102173.25;;;19.81;52.78
1480;BME280;732;51.698;4.886;2023-05-08T13:53:09;102174.97;;;19.62;52.90
1480;BME280;732;51.698;4.886;2023-05-08T13:55:37;102179.16;;;19.57;52.95